Time;durP1;ratioP1;P1;durP2;ratioP2;P2;SDS_P1;SDS_P2;PMS_P1;PMS_P2;Temp;Humidity;BMP_temperature;BMP_pressure;BME280_temperature;BME280_humidity;BME280_pressure;Samples;Min_cycle;Max_cycle;Signal;HPM_P1;HPM_P2
2023/08/16 00:07:59;;;;;;;14.65;13.05;;;;;;;20.62;76.84;101312.19;1672497;81;21425;-54
2023/08/16 00:13:34;;;;;;;14.68;12.15;;;;;;;20.55;76.96;101313.29;1681522;81;21374;-55
2023/08/16 00:19:08;;;;;;;12.88;11.68;;;;;;;20.49;77.06;101312.74;1677909;80;21382;-56
2023/08/16 00:24:45;;;;;;;14.10;12.10;;;;;;;20.43;77.20;101317.79;1679898;82;21298;-55
2023/08/16 00:27:51;;;;;;;13.80;12.05;;;;;;;20.40;77.22;101307.10;1677509;83;21381;-56
2023/08/16 00:33:26;;;;;;;13.05;10.55;;;;;;;20.29;77.22;101311.41;1671449;81;21259;-56
2023/08/16 00:39:03;;;;;;;12.15;10.93;;;;;;;20.21;77.24;101307.98;1680996;81;21271;-56
2023/08/16 00:44:38;;;;;;;13.32;11.22;;;;;;;20.11;77.29;101315.34;1676578;81;21380;-56
2023/08/16 00:50:15;;;;;;;12.65;11.35;;;;;;;20.07;77.53;101314.61;1682742;82;21236;-55
2023/08/16 00:58:19;;;;;;;13.40;12.00;;;;;;;20.00;77.76;101314.61;1649857;83;21859;-55
2023/08/16 01:03:56;;;;;;;13.45;12.15;;;;;;;19.97;77.99;101303.05;1650982;81;21797;-55
2023/08/16 01:09:36;;;;;;;14.80;13.35;;;;;;;19.96;78.21;101311.09;1679760;81;21250;-56
2023/08/16 01:18:28;;;;;;;17.48;13.70;;;;;;;19.97;78.58;101309.48;1674695;82;21909;-55
2023/08/16 01:21:34;;;;;;;14.58;13.13;;;;;;;19.98;78.66;101305.63;1680458;81;21228;-54
2023/08/16 01:24:48;;;;;;;14.25;12.60;;;;;;;19.97;78.78;101310.00;1673506;81;21294;-55
2023/08/16 01:32:52;;;;;;;19.50;13.75;;;;;;;19.93;79.00;101300.40;1664726;81;21394;-55
2023/08/16 01:35:59;;;;;;;14.23;12.82;;;;;;;19.93;79.00;101303.18;1670345;81;21797;-55
2023/08/16 01:41:56;;;;;;;14.50;12.95;;;;;;;19.88;79.09;101301.05;1673395;81;21240;-55
2023/08/16 01:45:05;;;;;;;14.53;13.03;;;;;;;19.87;79.09;101302.09;1673512;82;21400;-54
2023/08/16 01:48:11;;;;;;;13.83;12.50;;;;;;;19.84;79.16;101301.66;1680511;83;21389;-55
2023/08/16 01:53:47;;;;;;;13.28;11.97;;;;;;;19.78;79.23;101309.47;1674442;81;21232;-55
2023/08/16 01:59:23;;;;;;;14.33;11.55;;;;;;;19.72;79.27;101307.55;1680235;82;21271;-55
2023/08/16 02:04:58;;;;;;;12.98;11.63;;;;;;;19.64;79.22;101306.36;1667541;82;21256;-55
2023/08/16 02:10:33;;;;;;;13.75;12.37;;;;;;;19.56;79.16;101312.13;1658325;81;21307;-55
2023/08/16 02:13:40;;;;;;;13.18;11.60;;;;;;;19.52;79.13;101317.23;1676383;82;21863;-55
2023/08/16 02:16:38;;;;;;;15.20;12.40;;;;;;;19.48;79.18;101317.88;1671078;82;21159;-55
2023/08/16 02:22:14;;;;;;;15.43;11.48;;;;;;;19.42;79.34;101322.37;1651944;82;21338;-55
2023/08/16 02:27:50;;;;;;;13.78;12.35;;;;;;;19.39;79.52;101323.31;1648206;83;21288;-56
2023/08/16 02:30:55;;;;;;;13.68;12.20;;;;;;;19.38;79.58;101325.22;1679989;81;21545;-55
2023/08/16 02:36:30;;;;;;;18.52;12.95;;;;;;;19.35;79.71;101322.88;1649652;84;21910;-55
2023/08/16 02:42:06;;;;;;;14.68;11.83;;;;;;;19.33;79.79;101323.61;1678527;81;21240;-55
2023/08/16 02:47:41;;;;;;;12.98;11.75;;;;;;;19.29;79.77;101323.72;1677796;81;21948;-55
2023/08/16 02:50:47;;;;;;;14.78;11.53;;;;;;;19.26;79.77;101320.81;1613650;84;21295;-55
2023/08/16 02:53:44;;;;;;;13.20;11.80;;;;;;;19.24;79.84;101321.54;1626618;84;21299;-56
2023/08/16 02:59:21;;;;;;;15.08;11.28;;;;;;;19.22;79.95;101325.57;1684562;82;21864;-56
2023/08/16 03:04:56;;;;;;;15.03;11.63;;;;;;;19.20;80.04;101325.78;1703009;79;21256;-55
2023/08/16 03:10:30;;;;;;;13.58;11.85;;;;;;;19.20;80.14;101321.62;1687691;80;21268;-54
2023/08/16 03:13:36;;;;;;;14.55;12.55;;;;;;;19.20;80.15;101316.06;1683006;80;21260;-54
2023/08/16 03:21:43;;;;;;;17.35;13.70;;;;;;;19.29;80.64;101324.58;1677604;82;21438;-53
2023/08/16 03:27:19;;;;;;;19.95;14.33;;;;;;;19.37;80.90;101329.60;1695104;80;21243;-53
2023/08/16 03:35:24;;;;;;;17.62;13.83;;;;;;;19.51;81.22;101327.17;1707297;79;21204;-53
2023/08/16 03:38:30;;;;;;;15.35;12.80;;;;;;;19.55;81.27;101331.25;1704644;80;21192;-53
2023/08/16 03:44:06;;;;;;;13.32;11.93;;;;;;;19.65;81.42;101334.45;1705451;80;21414;-53
2023/08/16 03:47:05;;;;;;;15.85;12.90;;;;;;;19.69;81.46;101332.98;1709116;79;21296;-53
2023/08/16 03:52:41;;;;;;;16.55;12.23;;;;;;;19.82;81.71;101333.00;1679082;81;21379;-52
2023/08/16 03:58:17;;;;;;;15.32;12.35;;;;;;;19.94;81.83;101334.93;1694088;79;21215;-54
2023/08/16 04:03:52;;;;;;;16.02;12.90;;;;;;;20.09;82.02;101335.55;1710582;79;23142;-53
2023/08/16 04:06:59;;;;;;;16.48;13.28;;;;;;;20.14;82.04;101334.94;1705931;79;21271;-53
2023/08/16 04:12:36;;;;;;;13.62;12.23;;;;;;;20.28;82.14;101333.88;1707573;81;21236;-54
2023/08/16 04:18:11;;;;;;;14.23;12.03;;;;;;;20.44;82.28;101344.53;1704975;82;21280;-53
2023/08/16 04:21:17;;;;;;;13.68;11.53;;;;;;;20.50;82.32;101336.73;1708364;80;21352;-53
2023/08/16 04:26:52;;;;;;;13.00;11.70;;;;;;;20.67;82.41;101337.97;1710144;80;21887;-53
2023/08/16 04:32:29;;;;;;;13.72;11.68;;;;;;;20.82;82.49;101344.11;1684565;80;21776;-54
2023/08/16 04:38:03;;;;;;;14.38;11.48;;;;;;;20.97;82.54;101346.14;1676826;81;21254;-54
2023/08/16 04:43:39;;;;;;;14.95;10.65;;;;;;;21.14;82.58;101348.73;1656498;81;21255;-53
2023/08/16 04:49:18;;;;;;;11.28;10.15;;;;;;;21.30;82.59;101345.97;1713872;80;21826;-53
2023/08/16 04:54:52;;;;;;;11.93;10.25;;;;;;;21.47;82.62;101344.41;1700409;81;21252;-53
2023/08/16 05:00:29;;;;;;;15.68;10.48;;;;;;;21.62;82.63;101351.38;1726509;79;21267;-53
2023/08/16 05:08:35;;;;;;;11.95;9.38;;;;;;;21.86;82.63;101351.13;1713986;79;21745;-52
2023/08/16 05:14:11;;;;;;;12.55;8.93;;;;;;;22.01;82.61;101352.50;1706518;81;21240;-53
2023/08/16 05:19:48;;;;;;;10.82;8.65;;;;;;;22.18;82.63;101343.04;1670888;79;21253;-54
2023/08/16 05:25:23;;;;;;;10.95;8.38;;;;;;;22.34;82.60;101351.37;1654038;81;21259;-53
2023/08/16 05:30:59;;;;;;;9.53;7.60;;;;;;;22.46;82.45;101338.36;1705445;79;21232;-54
2023/08/16 05:36:35;;;;;;;8.70;7.47;;;;;;;22.57;82.29;101341.81;1703271;80;21184;-54
2023/08/16 05:42:11;;;;;;;9.33;7.53;;;;;;;22.68;82.23;101333.53;1692310;80;21761;-54
2023/08/16 05:50:18;;;;;;;9.38;6.95;;;;;;;22.88;82.16;101344.49;1723828;78;21279;-52
2023/08/16 05:53:24;;;;;;;8.13;6.30;;;;;;;22.95;82.17;101346.64;1677069;80;21270;-56
2023/08/16 05:59:00;;;;;;;9.38;5.95;;;;;;;23.10;82.09;101335.94;1701631;80;21233;-58
2023/08/16 06:04:35;;;;;;;8.58;6.15;;;;;;;23.25;82.06;101341.95;1687193;79;21852;-56
2023/08/16 06:07:41;;;;;;;9.95;5.83;;;;;;;23.33;82.01;101341.66;1700456;78;21367;-56
2023/08/16 06:13:17;;;;;;;8.28;5.03;;;;;;;23.50;81.85;101337.11;1709593;79;21251;-56
2023/08/16 06:18:53;;;;;;;7.62;6.53;;;;;;;23.64;81.69;101333.89;1704464;78;21252;-57
2023/08/16 06:21:59;;;;;;;10.88;6.70;;;;;;;23.69;81.61;101337.36;1703571;80;21294;-57
2023/08/16 06:27:33;;;;;;;8.93;5.28;;;;;;;23.84;81.46;101346.18;1708828;79;21245;-55
2023/08/16 06:30:40;;;;;;;7.22;4.67;;;;;;;23.93;81.43;101347.53;1702107;79;21264;-55
2023/08/16 06:33:47;;;;;;;5.95;4.80;;;;;;;24.03;81.36;101349.23;1694924;81;21323;-55
2023/08/16 06:39:22;;;;;;;7.28;4.75;;;;;;;24.21;81.13;101339.36;1712345;80;21275;-57
2023/08/16 06:42:28;;;;;;;6.60;4.65;;;;;;;24.27;80.99;101341.19;1703015;79;22101;-55
2023/08/16 06:45:29;;;;;;;6.90;4.33;;;;;;;24.35;80.84;101343.62;1685705;81;21226;-54
2023/08/16 06:51:06;;;;;;;9.38;4.30;;;;;;;24.56;80.64;101342.17;1671981;81;21244;-56
2023/08/16 06:56:42;;;;;;;5.30;4.10;;;;;;;24.69;80.20;101331.58;1713236;78;21311;-55
2023/08/16 07:02:20;;;;;;;8.05;4.15;;;;;;;24.82;79.82;101338.87;1704425;80;21812;-55
2023/08/16 07:07:56;;;;;;;5.15;3.65;;;;;;;24.91;79.38;101338.25;1702925;78;21782;-55
2023/08/16 07:13:31;;;;;;;7.90;3.50;;;;;;;25.02;78.97;101330.94;1701657;81;21760;-55
2023/08/16 07:19:08;;;;;;;8.55;3.35;;;;;;;25.08;78.50;101322.36;1695075;80;21241;-55
2023/08/16 07:24:43;;;;;;;6.42;3.40;;;;;;;25.21;78.19;101320.39;1689435;79;21222;-56
2023/08/16 07:30:19;;;;;;;5.83;3.55;;;;;;;25.38;77.94;101325.53;1734693;81;21282;-55
2023/08/16 07:35:56;;;;;;;8.48;3.80;;;;;;;25.45;77.58;101321.47;1693548;81;21249;-56
2023/08/16 07:41:32;;;;;;;8.10;3.40;;;;;;;25.55;77.11;101330.62;1693128;80;21267;-55
2023/08/16 07:44:37;;;;;;;7.08;3.77;;;;;;;25.55;76.82;101326.42;1688533;81;21291;-54
2023/08/16 07:50:10;;;;;;;4.92;3.83;;;;;;;25.59;76.37;101329.91;1695647;80;21833;-54
2023/08/16 07:53:17;;;;;;;6.65;4.45;;;;;;;25.61;76.19;101326.27;1685859;82;21262;-55
2023/08/16 07:58:52;;;;;;;5.78;3.52;;;;;;;25.66;75.77;101317.09;1677892;80;21280;-54
2023/08/16 08:01:57;;;;;;;7.05;4.17;;;;;;;25.66;75.46;101322.70;1670423;81;21531;-55
2023/08/16 08:07:33;;;;;;;6.12;4.03;;;;;;;25.70;75.16;101315.50;1701679;79;21244;-54
2023/08/16 08:13:09;;;;;;;8.68;3.87;;;;;;;25.76;74.80;101317.30;1704418;79;21614;-54
2023/08/16 08:16:14;;;;;;;9.18;3.98;;;;;;;25.80;74.64;101321.31;1677650;80;21257;-54
2023/08/16 08:19:21;;;;;;;7.75;3.47;;;;;;;25.85;74.42;101315.23;1686955;80;21231;-56
2023/08/16 08:22:04;;;;;;;6.62;3.30;;;;;;;25.91;74.26;101314.78;1705412;80;22046;-55
2023/08/16 08:24:40;;;;;;;6.78;3.42;;;;;;;25.93;73.94;101307.80;1702717;79;21203;-55
2023/08/16 08:27:47;;;;;;;6.05;3.33;;;;;;;25.96;73.68;101313.44;1632936;83;21336;-56
2023/08/16 08:30:52;;;;;;;6.58;3.08;;;;;;;25.99;73.42;101311.55;1699120;80;21748;-54
2023/08/16 08:33:58;;;;;;;5.80;3.42;;;;;;;26.00;73.11;101301.51;1701109;80;21251;-55
2023/08/16 08:39:31;;;;;;;7.15;3.37;;;;;;;26.09;72.65;101311.73;1643160;80;21296;-55
2023/08/16 08:45:08;;;;;;;7.55;3.22;;;;;;;26.11;72.10;101315.15;1700052;80;21263;-56
2023/08/16 08:48:14;;;;;;;7.00;3.00;;;;;;;26.13;71.99;101311.55;1716577;80;21255;-55
2023/08/16 08:53:51;;;;;;;5.45;3.20;;;;;;;26.28;71.59;101297.73;1710875;78;21741;-55
2023/08/16 08:59:26;;;;;;;9.40;3.15;;;;;;;26.38;71.11;101303.52;1661287;80;21268;-54
2023/08/16 09:05:01;;;;;;;5.75;3.40;;;;;;;26.45;70.60;101301.37;1700042;79;21231;-52
2023/08/16 09:10:38;;;;;;;6.55;3.60;;;;;;;26.56;70.16;101299.00;1694939;81;21228;-54
2023/08/16 09:16:12;;;;;;;5.60;3.35;;;;;;;26.58;69.56;101302.95;1697365;80;21220;-52
2023/08/16 09:21:48;;;;;;;6.53;3.15;;;;;;;26.60;69.09;101295.98;1705302;81;21268;-54
2023/08/16 09:27:22;;;;;;;6.92;3.20;;;;;;;26.73;68.81;101299.02;1703812;78;21221;-54
2023/08/16 09:33:02;;;;;;;4.20;3.02;;;;;;;26.82;68.33;101298.84;1699970;78;21225;-54
2023/08/16 09:36:07;;;;;;;5.75;3.12;;;;;;;26.87;68.22;101299.78;1700451;81;21224;-53
2023/08/16 09:39:16;;;;;;;5.33;3.25;;;;;;;26.93;67.88;101298.73;1698815;78;21752;-54
2023/08/16 09:42:22;;;;;;;5.60;3.02;;;;;;;26.94;67.48;101286.94;1697624;79;21296;-51
2023/08/16 09:45:41;;;;;;;6.95;3.75;;;;;;;26.96;67.29;101288.37;1686809;80;21521;-52
2023/08/16 09:48:49;;;;;;;4.45;3.52;;;;;;;27.00;67.03;101286.75;1707673;80;21760;-55
2023/08/16 09:51:59;;;;;;;6.10;3.45;;;;;;;27.07;66.82;101280.90;1699698;78;21193;-56
2023/08/16 09:55:07;;;;;;;9.70;3.95;;;;;;;27.11;66.53;101284.36;1700933;80;21262;-54
2023/08/16 09:58:15;;;;;;;3.92;3.37;;;;;;;27.19;66.26;101283.89;1707571;80;21240;-54
2023/08/16 10:03:54;;;;;;;5.78;3.52;;;;;;;27.24;65.76;101281.11;1707112;79;21201;-53
2023/08/16 10:07:01;;;;;;;6.78;3.33;;;;;;;27.27;65.58;101272.21;1701288;80;21212;-56
2023/08/16 10:09:52;;;;;;;6.45;3.30;;;;;;;27.30;65.40;101275.90;1680292;80;21866;-55
2023/08/16 10:12:58;;;;;;;8.80;3.30;;;;;;;27.37;65.31;101282.15;1686831;79;21219;-53
2023/08/16 10:18:34;;;;;;;6.97;3.15;;;;;;;27.41;64.61;101274.89;1705440;81;21220;-56
2023/08/16 10:21:45;;;;;;;6.65;3.27;;;;;;;27.39;64.31;101267.27;1660612;82;21228;-55
2023/08/16 10:24:51;;;;;;;7.45;3.27;;;;;;;27.39;64.09;101270.63;1705704;80;21511;-54
2023/08/16 10:28:02;;;;;;;7.65;4.00;;;;;;;27.42;63.94;101260.25;1697785;80;21224;-54
2023/08/16 10:31:09;;;;;;;9.13;5.50;;;;;;;27.43;63.65;101268.42;1705443;80;21798;-55
2023/08/16 10:36:46;;;;;;;7.05;4.40;;;;;;;27.53;63.37;101258.70;1697385;80;21346;-54
2023/08/16 10:39:56;;;;;;;6.47;3.00;;;;;;;27.61;63.21;101265.25;1701675;80;21792;-54
2023/08/16 10:43:09;;;;;;;4.17;3.20;;;;;;;27.68;62.94;101261.67;1702027;80;21363;-56
2023/08/16 10:46:16;;;;;;;6.05;3.55;;;;;;;27.72;62.72;101245.94;1667013;82;21271;-57
2023/08/16 10:49:23;;;;;;;6.97;3.52;;;;;;;27.77;62.48;101251.61;1651707;79;21603;-55
2023/08/16 10:52:38;;;;;;;5.60;3.42;;;;;;;27.89;62.36;101259.06;1693509;78;21276;-58
2023/08/16 10:55:45;;;;;;;6.55;3.40;;;;;;;27.98;62.19;101253.22;1691994;80;21259;-57
2023/08/16 10:58:54;;;;;;;8.38;3.02;;;;;;;28.10;62.02;101255.30;1693601;80;21217;-55
2023/08/16 11:04:30;;;;;;;6.92;3.00;;;;;;;28.23;61.56;101249.17;1695364;80;22043;-57
2023/08/16 11:07:37;;;;;;;3.75;2.92;;;;;;;28.30;61.45;101254.03;1662047;82;21252;-56
2023/08/16 11:10:46;;;;;;;5.60;3.12;;;;;;;28.39;61.35;101252.39;1677363;82;21263;-54
2023/08/16 11:16:23;;;;;;;5.70;3.58;;;;;;;28.53;60.85;101249.41;1695619;80;21262;-56
2023/08/16 11:24:31;;;;;;;5.45;3.30;;;;;;;28.70;60.32;101236.82;1663407;81;21319;-53
2023/08/16 11:30:08;;;;;;;4.30;3.35;;;;;;;28.81;59.71;101230.69;1699360;80;21245;-55
2023/08/16 11:35:41;;;;;;;6.00;3.70;;;;;;;28.89;59.53;101225.93;1707816;80;21280;-53
2023/08/16 11:38:48;;;;;;;4.45;3.12;;;;;;;28.88;59.23;101222.25;1691792;81;21251;-52
2023/08/16 11:44:24;;;;;;;6.67;3.47;;;;;;;28.91;58.83;101215.20;1692232;80;21334;-55
2023/08/16 11:47:23;;;;;;;5.15;3.17;;;;;;;28.94;58.68;101211.82;1695851;80;21590;-53
2023/08/16 11:50:30;;;;;;;8.33;3.92;;;;;;;28.94;58.43;101205.63;1694603;80;21283;-57
2023/08/16 11:56:10;;;;;;;5.00;3.50;;;;;;;28.96;58.06;101201.98;1704665;79;21205;-57
2023/08/16 11:59:15;;;;;;;5.75;3.22;;;;;;;29.00;57.88;101202.28;1636451;82;21885;-57
2023/08/16 12:02:23;;;;;;;5.35;3.30;;;;;;;29.06;57.45;101194.11;1702005;81;21281;-56
2023/08/16 12:05:33;;;;;;;4.53;3.25;;;;;;;29.15;57.54;101206.57;1692710;80;21279;-57
2023/08/16 12:08:40;;;;;;;4.35;3.72;;;;;;;29.13;57.17;101211.64;1649599;82;21805;-50
2023/08/16 12:11:46;;;;;;;6.67;3.15;;;;;;;29.02;56.81;101206.50;1708899;79;21878;-55
2023/08/16 12:19:51;;;;;;;8.63;3.30;;;;;;;29.12;56.25;101205.17;1698342;79;21962;-54
2023/08/16 12:25:31;;;;;;;5.75;3.27;;;;;;;28.81;55.63;101199.68;1701922;80;21223;-53
2023/08/16 12:28:40;;;;;;;4.15;2.95;;;;;;;28.69;55.52;101197.08;1714251;80;21235;-52
2023/08/16 12:31:49;;;;;;;5.72;3.30;;;;;;;28.67;55.64;101190.04;1674643;80;21295;-55
2023/08/16 12:34:57;;;;;;;6.75;3.27;;;;;;;28.74;55.70;101190.06;1695662;79;21579;-54
2023/08/16 12:38:07;;;;;;;5.85;3.05;;;;;;;28.69;55.32;101183.54;1652722;80;21295;-56
2023/08/16 12:41:16;;;;;;;6.05;3.12;;;;;;;28.69;55.32;101183.54;1655289;79;21381;-53
2023/08/16 12:44:26;;;;;;;4.05;3.40;;;;;;;28.72;55.50;101182.44;1701947;78;21382;-55
2023/08/16 12:47:41;;;;;;;8.30;3.58;;;;;;;28.72;55.28;101180.17;1643509;80;21256;-55
2023/08/16 12:50:48;;;;;;;4.50;3.25;;;;;;;28.69;55.17;101174.53;1663379;82;21280;-54
2023/08/16 12:54:01;;;;;;;6.58;3.67;;;;;;;28.68;55.09;101177.62;1699348;79;21286;-57
2023/08/16 12:57:20;;;;;;;8.65;3.75;;;;;;;28.71;55.09;101171.44;1667683;79;21841;-51
2023/08/16 13:03:03;;;;;;;5.20;3.50;;;;;;;28.78;54.93;101159.36;1696287;80;21497;-59
2023/08/16 13:05:59;;;;;;;4.67;3.20;;;;;;;28.78;54.93;101159.36;1700224;78;21643;-55
2023/08/16 13:11:39;;;;;;;8.15;3.60;;;;;;;28.81;54.62;101154.57;1688071;78;21258;-56
2023/08/16 13:14:47;;;;;;;3.52;3.17;;;;;;;28.77;54.22;101160.46;1683572;80;21235;-56
2023/08/16 13:22:53;;;;;;;6.97;3.27;;;;;;;28.75;54.77;101152.83;1646667;83;21650;-55
2023/08/16 13:28:30;;;;;;;4.62;3.33;;;;;;;28.72;54.00;101150.02;1684771;81;21331;-55
2023/08/16 13:34:08;;;;;;;6.62;3.15;;;;;;;28.84;54.14;101142.15;1685225;79;21248;-55
2023/08/16 13:37:16;;;;;;;6.95;3.30;;;;;;;28.96;54.05;101147.55;1702445;78;21869;-56
2023/08/16 13:40:08;;;;;;;5.50;3.00;;;;;;;28.96;54.05;101147.55;1689566;80;21229;-55
2023/08/16 13:43:15;;;;;;;9.05;4.65;;;;;;;28.92;53.74;101147.84;1713663;79;21205;-56
2023/08/16 13:48:51;;;;;;;6.92;4.12;;;;;;;28.69;53.48;101137.03;1688196;79;21326;-55
2023/08/16 13:54:25;;;;;;;5.00;3.20;;;;;;;28.64;53.50;101134.19;1681996;80;21205;-54
2023/08/16 13:57:34;;;;;;;5.45;3.22;;;;;;;28.62;53.30;101122.38;1678661;80;21753;-56
2023/08/16 14:03:10;;;;;;;7.53;3.20;;;;;;;28.81;53.39;101127.79;1705578;80;21232;-55
2023/08/16 14:08:45;;;;;;;7.22;3.58;;;;;;;28.80;53.41;101115.66;1640592;83;21288;-55
2023/08/16 14:14:20;;;;;;;6.03;3.83;;;;;;;28.74;53.47;101115.91;1687081;80;22110;-55
2023/08/16 14:19:55;;;;;;;6.30;3.40;;;;;;;28.68;53.31;101109.44;1699475;79;21213;-55
2023/08/16 14:25:30;;;;;;;4.80;2.95;;;;;;;28.48;53.07;101105.70;1676314;82;21240;-55
2023/08/16 14:31:06;;;;;;;7.95;3.52;;;;;;;28.25;53.51;101104.70;1677289;81;21785;-55
2023/08/16 14:39:12;;;;;;;5.42;3.20;;;;;;;28.05;53.14;101111.07;1696506;80;21433;-55
2023/08/16 14:44:47;;;;;;;6.47;3.35;;;;;;;27.86;53.25;101107.84;1698519;81;21789;-57
2023/08/16 14:50:24;;;;;;;7.25;3.60;;;;;;;27.73;53.37;101108.89;1703167;80;21192;-55
2023/08/16 14:56:00;;;;;;;7.20;3.77;;;;;;;27.69;53.51;101100.14;1707471;81;21363;-56
2023/08/16 15:01:37;;;;;;;5.55;3.50;;;;;;;27.84;53.62;101096.58;1696641;82;21250;-56
2023/08/16 15:07:12;;;;;;;5.50;3.45;;;;;;;28.00;53.76;101098.95;1674936;83;21279;-55
2023/08/16 15:12:48;;;;;;;5.20;3.10;;;;;;;27.95;53.77;101093.28;1627678;82;21252;-56
2023/08/16 15:15:53;;;;;;;5.35;3.10;;;;;;;27.90;53.82;101092.70;1689369;79;21581;-55
2023/08/16 15:21:30;;;;;;;6.87;4.10;;;;;;;27.74;53.99;101098.77;1694747;80;21299;-55
2023/08/16 15:24:36;;;;;;;6.95;4.28;;;;;;;27.69;54.04;101097.87;1715820;80;21773;-55
2023/08/16 15:27:43;;;;;;;6.33;3.70;;;;;;;27.63;54.14;101098.41;1699552;80;21240;-54
2023/08/16 15:30:56;;;;;;;9.03;3.55;;;;;;;27.57;54.24;101099.50;1688753;78;21255;-55
2023/08/16 15:33:57;;;;;;;9.93;3.67;;;;;;;27.54;54.32;101104.81;1677383;80;21216;-55
2023/08/16 15:37:04;;;;;;;5.40;3.27;;;;;;;27.52;54.39;101098.59;1683964;80;21281;-55
2023/08/16 15:40:12;;;;;;;6.55;3.40;;;;;;;27.58;54.41;101102.59;1677401;80;21729;-54
2023/08/16 15:45:45;;;;;;;5.83;3.72;;;;;;;27.66;54.49;101102.09;1684460;82;21806;-56
2023/08/16 15:48:51;;;;;;;6.80;3.47;;;;;;;27.73;54.61;101102.68;1660326;80;21333;-55
2023/08/16 15:54:26;;;;;;;5.42;3.50;;;;;;;27.86;54.54;101098.54;1672676;82;21268;-55
2023/08/16 16:00:04;;;;;;;5.05;3.22;;;;;;;27.82;54.67;101098.81;1676989;81;21256;-54
2023/08/16 16:05:38;;;;;;;7.72;3.85;;;;;;;27.75;54.68;101097.64;1674321;81;21760;-55
2023/08/16 16:11:14;;;;;;;6.03;3.22;;;;;;;27.61;54.81;101096.42;1675944;80;21264;-56
2023/08/16 16:16:53;;;;;;;5.22;3.80;;;;;;;27.46;54.98;101104.73;1686436;81;21256;-55
2023/08/16 16:24:56;;;;;;;5.90;3.52;;;;;;;27.30;55.30;101111.37;1687547;80;21212;-54
2023/08/16 16:28:02;;;;;;;8.15;3.42;;;;;;;27.25;55.34;101107.62;1691872;81;22066;-54
2023/08/16 16:33:34;;;;;;;4.42;3.85;;;;;;;27.05;55.53;101115.30;1711728;79;21266;-56
2023/08/16 16:36:39;;;;;;;5.75;4.30;;;;;;;26.98;55.56;101118.90;1715148;79;21232;-56
2023/08/16 16:42:14;;;;;;;7.28;4.95;;;;;;;26.76;55.70;101125.67;1652533;81;21828;-55
2023/08/16 16:47:50;;;;;;;10.38;5.50;;;;;;;26.56;55.84;101123.44;1679592;81;21279;-55
2023/08/16 16:53:24;;;;;;;10.45;5.80;;;;;;;26.35;56.00;101129.94;1673618;82;21213;-55
2023/08/16 16:56:30;;;;;;;12.85;5.47;;;;;;;26.28;56.08;101132.07;1664404;80;21224;-55
2023/08/16 17:02:04;;;;;;;14.28;7.22;;;;;;;26.10;56.33;101134.64;1668999;82;21270;-55
2023/08/16 17:07:41;;;;;;;10.10;5.37;;;;;;;25.93;56.52;101125.92;1673263;82;21302;-54
2023/08/16 17:10:46;;;;;;;9.60;5.20;;;;;;;25.82;56.53;101131.95;1674744;81;21227;-55
2023/08/16 17:18:51;;;;;;;8.90;4.72;;;;;;;25.50;56.88;101130.88;1699779;79;21245;-55
2023/08/16 17:24:25;;;;;;;9.65;4.37;;;;;;;25.34;57.19;101140.70;1709518;79;21332;-55
2023/08/16 17:27:30;;;;;;;6.53;3.83;;;;;;;25.28;57.30;101138.86;1694103;80;21271;-55
2023/08/16 17:33:05;;;;;;;7.60;4.30;;;;;;;25.05;57.58;101140.70;1706355;80;21217;-56
2023/08/16 17:41:11;;;;;;;5.37;4.15;;;;;;;24.82;57.99;101137.17;1712751;81;21816;-56
2023/08/16 17:46:47;;;;;;;7.45;4.30;;;;;;;24.69;58.28;101144.47;1721139;80;21792;-56
2023/08/16 17:52:22;;;;;;;9.18;4.40;;;;;;;24.55;58.58;101136.89;1715418;79;21209;-56
2023/08/16 17:57:57;;;;;;;5.17;4.45;;;;;;;24.43;58.82;101143.09;1706800;80;21806;-57
2023/08/16 18:03:33;;;;;;;6.33;4.60;;;;;;;24.29;59.07;101145.02;1710603;80;21772;-56
2023/08/16 18:09:09;;;;;;;6.65;4.87;;;;;;;24.13;59.33;101145.23;1720378;80;21841;-56
2023/08/16 18:14:46;;;;;;;8.48;5.15;;;;;;;24.02;59.64;101143.31;1669864;82;21792;-56
2023/08/16 18:20:24;;;;;;;9.80;5.55;;;;;;;23.90;59.96;101155.00;1706519;80;21244;-56
2023/08/16 18:26:00;;;;;;;10.48;5.55;;;;;;;23.79;60.21;101148.87;1712595;80;21231;-55
2023/08/16 18:31:35;;;;;;;11.20;4.92;;;;;;;23.68;60.48;101153.91;1686178;81;21243;-55
2023/08/16 18:37:11;;;;;;;8.25;5.67;;;;;;;23.57;60.78;101143.58;1710881;78;21275;-55
2023/08/16 18:42:47;;;;;;;8.50;4.85;;;;;;;23.49;61.01;101152.32;1698930;81;21255;-54
2023/08/16 18:48:22;;;;;;;10.50;5.53;;;;;;;23.38;61.23;101150.36;1736696;79;21227;-55
2023/08/16 18:56:31;;;;;;;9.70;5.10;;;;;;;23.23;61.58;101146.59;1676855;83;21235;-55
2023/08/16 19:02:07;;;;;;;5.85;4.97;;;;;;;23.14;61.84;101141.59;1676220;81;21674;-56
2023/08/16 19:05:14;;;;;;;7.03;4.92;;;;;;;23.10;61.94;101151.55;1669483;82;21242;-56
2023/08/16 19:10:46;;;;;;;8.90;5.20;;;;;;;23.02;62.23;101151.89;1651599;81;21781;-55
2023/08/16 19:16:22;;;;;;;8.00;5.15;;;;;;;22.95;62.45;101151.13;1627825;83;21300;-56
2023/08/16 19:21:57;;;;;;;9.05;5.25;;;;;;;22.87;62.64;101144.48;1678881;80;21229;-56
2023/08/16 19:30:05;;;;;;;10.30;5.58;;;;;;;22.74;62.93;101151.12;1675197;81;21498;-56
2023/08/16 19:33:12;;;;;;;12.58;5.30;;;;;;;22.72;63.01;101149.66;1675354;82;21338;-56
2023/08/16 19:41:17;;;;;;;9.40;5.53;;;;;;;22.54;63.27;101144.11;1682330;81;21450;-55
2023/08/16 19:44:23;;;;;;;8.08;5.37;;;;;;;22.52;63.38;101142.09;1674144;82;21389;-56
2023/08/16 19:50:00;;;;;;;9.05;5.30;;;;;;;22.44;63.64;101143.80;1678930;80;21402;-55
2023/08/16 19:55:35;;;;;;;9.73;6.05;;;;;;;22.34;63.84;101144.36;1707186;80;21283;-56
2023/08/16 20:01:10;;;;;;;8.55;5.75;;;;;;;22.26;64.03;101149.39;1696148;79;21263;-55
2023/08/16 20:06:45;;;;;;;7.92;5.67;;;;;;;22.17;64.20;101143.25;1704070;81;21397;-56
2023/08/16 20:12:23;;;;;;;9.40;5.37;;;;;;;22.07;64.39;101144.36;1669634;80;21303;-56
2023/08/16 20:17:57;;;;;;;8.53;5.33;;;;;;;21.98;64.56;101152.17;1719257;81;21387;-55
2023/08/16 20:23:33;;;;;;;7.42;5.97;;;;;;;21.90;64.77;101157.19;1725151;80;21240;-55
2023/08/16 20:31:40;;;;;;;7.72;5.58;;;;;;;21.80;65.05;101159.11;1661689;80;21795;-55
2023/08/16 20:37:16;;;;;;;8.83;5.85;;;;;;;21.73;65.23;101154.66;1690081;79;21221;-55
2023/08/16 20:45:21;;;;;;;7.28;5.58;;;;;;;21.66;65.52;101148.31;1675090;83;21446;-56
2023/08/16 20:50:59;;;;;;;8.93;5.92;;;;;;;21.60;65.69;101143.63;1692087;80;21232;-57
2023/08/16 20:56:34;;;;;;;12.15;6.33;;;;;;;21.54;65.89;101146.81;1688826;80;21757;-57
2023/08/16 21:02:09;;;;;;;15.43;6.90;;;;;;;21.52;66.08;101142.00;1712645;80;21410;-58
2023/08/16 21:05:17;;;;;;;11.00;6.20;;;;;;;21.50;66.13;101144.16;1715069;79;21456;-56
2023/08/16 21:08:15;;;;;;;8.28;5.42;;;;;;;21.47;66.17;101146.01;1718516;80;21859;-56
2023/08/16 21:13:50;;;;;;;13.53;6.50;;;;;;;21.38;66.33;101138.16;1684599;79;21296;-56
2023/08/16 21:19:26;;;;;;;8.85;6.10;;;;;;;21.35;66.56;101145.06;1703686;79;21378;-56
2023/08/16 21:25:02;;;;;;;10.80;7.03;;;;;;;21.30;66.76;101137.05;1724814;81;21378;-55
2023/08/16 21:30:37;;;;;;;9.93;6.05;;;;;;;21.25;66.92;101141.92;1661241;81;21259;-56
2023/08/16 21:36:13;;;;;;;8.25;6.28;;;;;;;21.17;66.97;101142.20;1705810;80;21288;-55
2023/08/16 21:41:48;;;;;;;9.38;6.60;;;;;;;21.10;67.10;101140.02;1714701;80;21441;-55
2023/08/16 21:44:54;;;;;;;9.25;6.40;;;;;;;21.07;67.11;101140.48;1727740;79;21359;-56
2023/08/16 21:50:29;;;;;;;8.28;6.40;;;;;;;20.96;67.27;101143.98;1721547;78;21236;-54
2023/08/16 21:56:04;;;;;;;8.90;5.92;;;;;;;20.87;67.50;101139.70;1704603;82;21303;-55
2023/08/16 21:59:10;;;;;;;9.93;6.47;;;;;;;20.83;67.57;101143.47;1701246;79;21243;-55
2023/08/16 22:04:46;;;;;;;10.50;5.87;;;;;;;20.78;67.85;101143.84;1703473;79;21251;-55
2023/08/16 22:07:44;;;;;;;8.15;6.50;;;;;;;20.76;67.90;101137.64;1711349;81;21674;-56
2023/08/16 22:10:49;;;;;;;13.25;6.55;;;;;;;20.72;67.97;101133.62;1700517;80;21303;-54
2023/08/16 22:16:26;;;;;;;9.75;6.50;;;;;;;20.66;68.18;101135.91;1707447;82;21194;-54
2023/08/16 22:22:03;;;;;;;11.08;6.30;;;;;;;20.61;68.32;101139.89;1708266;79;21231;-56
2023/08/16 22:30:06;;;;;;;10.95;6.60;;;;;;;20.54;68.51;101141.84;1691187;81;21925;-55